createdAt,value
2023-04-01T00:01:17.722Z,9.10
2023-04-01T00:03:44.870Z,9.10
2023-04-01T00:06:15.953Z,9.00
2023-04-01T00:08:42.708Z,9.00
2023-04-01T00:11:09.323Z,9.00
2023-04-01T00:13:36.788Z,9.00
2023-04-01T00:16:13.507Z,9.00
2023-04-01T00:18:48.170Z,9.00
2023-04-01T00:21:15.035Z,9.00
2023-04-01T00:23:41.614Z,9.00
2023-04-01T00:26:08.302Z,9.00
2023-04-01T00:28:35.025Z,9.10
2023-04-01T00:31:05.228Z,9.10
2023-04-01T00:33:31.977Z,9.20
2023-04-01T00:36:06.478Z,9.20
2023-04-01T00:38:33.136Z,9.20
2023-04-01T00:41:01.044Z,9.10
2023-04-01T00:43:27.646Z,9.00
2023-04-01T00:45:54.284Z,8.90
2023-04-01T00:48:23.708Z,9.10
2023-04-01T00:50:53.015Z,9.00
2023-04-01T00:53:20.405Z,9.00
2023-04-01T00:55:51.046Z,8.90
2023-04-01T00:58:19.610Z,8.90
2023-04-01T01:00:47.602Z,8.90
2023-04-01T01:03:14.255Z,9.00
2023-04-01T01:05:56.298Z,9.00
2023-04-01T01:08:22.968Z,9.00
2023-04-01T01:10:53.418Z,9.10
2023-04-01T01:13:20.000Z,9.20
2023-04-01T01:16:05.438Z,9.00
2023-04-01T01:18:45.022Z,9.10
2023-04-01T01:21:30.448Z,9.10
2023-04-01T01:24:09.292Z,9.10
2023-04-01T01:26:45.306Z,9.00
2023-04-01T01:29:15.106Z,9.00
2023-04-01T01:31:53.927Z,9.00
2023-04-01T01:34:34.646Z,8.90
2023-04-01T01:37:10.761Z,8.90
2023-04-01T01:39:37.595Z,8.80
2023-04-01T01:42:06.182Z,8.80
2023-04-01T01:44:34.062Z,8.90
2023-04-01T01:47:01.231Z,8.90
2023-04-01T01:49:31.344Z,8.90
2023-04-01T01:51:58.298Z,8.90
2023-04-01T01:54:24.966Z,8.90
2023-04-01T01:56:56.949Z,8.80
2023-04-01T01:59:25.796Z,8.70
2023-04-01T02:01:55.874Z,8.70
2023-04-01T02:04:23.533Z,8.70
2023-04-01T02:07:02.355Z,8.70
2023-04-01T02:09:30.416Z,8.80
2023-04-01T02:11:58.175Z,8.70
2023-04-01T02:14:26.546Z,8.70
2023-04-01T02:16:58.182Z,8.60
2023-04-01T02:19:27.421Z,8.50
2023-04-01T02:21:56.376Z,8.50
2023-04-01T02:24:25.010Z,8.40
2023-04-01T02:26:52.522Z,8.40
2023-04-01T02:29:20.702Z,8.40
2023-04-01T02:31:47.610Z,8.40
2023-04-01T02:34:14.698Z,8.40
2023-04-01T02:36:41.371Z,8.40
2023-04-01T02:39:08.710Z,8.40
2023-04-01T02:41:42.144Z,8.40
2023-04-01T02:44:09.137Z,8.20
2023-04-01T02:46:35.783Z,8.30
2023-04-01T02:49:02.551Z,8.30
2023-04-01T02:51:29.943Z,8.20
2023-04-01T02:53:57.412Z,8.20
2023-04-01T02:56:24.092Z,8.20
2023-04-01T02:58:51.696Z,8.20
2023-04-01T03:01:18.423Z,8.30
2023-04-01T03:03:45.140Z,8.30
2023-04-01T03:06:13.258Z,8.20
2023-04-01T03:08:39.977Z,8.20
2023-04-01T03:11:06.949Z,8.10
2023-04-01T03:13:33.642Z,8.10
2023-04-01T03:16:00.379Z,8.10
2023-04-01T03:18:27.463Z,8.00
2023-04-01T03:20:54.173Z,8.00
2023-04-01T03:23:21.993Z,8.00
2023-04-01T03:25:49.041Z,7.90
2023-04-01T03:28:16.660Z,7.90
2023-04-01T03:30:43.325Z,7.80
2023-04-01T03:33:10.054Z,7.70
2023-04-01T03:35:37.057Z,7.80
2023-04-01T03:38:03.709Z,7.80
2023-04-01T03:40:30.374Z,7.70
2023-04-01T03:42:57.331Z,7.80
2023-04-01T03:45:24.098Z,7.80
2023-04-01T03:47:51.350Z,7.70
2023-04-01T03:50:18.104Z,7.70
2023-04-01T03:52:44.886Z,7.70
2023-04-01T03:55:11.748Z,7.70
2023-04-01T03:57:38.387Z,7.80
2023-04-01T04:00:05.224Z,7.80
2023-04-01T04:02:32.070Z,7.80
2023-04-01T04:04:58.718Z,7.80
2023-04-01T04:07:25.464Z,7.90
2023-04-01T04:09:52.167Z,7.80
2023-04-01T04:12:18.760Z,7.90
2023-04-01T04:14:45.388Z,7.90
2023-04-01T04:17:17.129Z,7.80
2023-04-01T04:19:44.105Z,7.70
2023-04-01T04:22:11.000Z,7.70
2023-04-01T04:24:37.727Z,7.70
2023-04-01T04:27:05.233Z,7.60
2023-04-01T04:29:31.901Z,7.70
2023-04-01T04:31:58.722Z,7.60
2023-04-01T04:34:25.502Z,7.50
2023-04-01T04:36:52.186Z,7.40
2023-04-01T04:39:18.886Z,7.40
2023-04-01T04:41:45.489Z,7.30
2023-04-01T04:44:12.238Z,7.40
2023-04-01T04:46:40.304Z,7.40
2023-04-01T04:49:07.292Z,7.40
2023-04-01T04:51:36.970Z,7.40
2023-04-01T04:54:03.941Z,7.40
2023-04-01T04:56:31.739Z,7.40
2023-04-01T04:58:58.651Z,7.40
2023-04-01T05:01:25.654Z,7.40
2023-04-01T05:03:55.334Z,7.40
2023-04-01T05:06:23.595Z,7.40
2023-04-01T05:08:50.457Z,7.60
2023-04-01T05:11:17.830Z,7.50
2023-04-01T05:13:45.092Z,7.60
2023-04-01T05:16:12.791Z,7.70
2023-04-01T05:18:39.794Z,7.70
2023-04-01T05:21:07.987Z,7.80
2023-04-01T05:23:34.872Z,7.90
2023-04-01T05:26:08.589Z,8.00
2023-04-01T05:28:35.303Z,8.10
2023-04-01T05:31:02.576Z,8.20
2023-04-01T05:33:29.644Z,8.20
2023-04-01T05:35:56.427Z,8.20
2023-04-01T05:38:23.188Z,8.40
2023-04-01T05:40:49.777Z,8.40
2023-04-01T05:43:16.441Z,8.50
2023-04-01T05:45:43.031Z,8.50
2023-04-01T05:48:09.726Z,8.60
2023-04-01T05:50:36.323Z,8.70
2023-04-01T05:53:02.981Z,8.60
2023-04-01T05:55:29.694Z,8.60
2023-04-01T05:57:56.369Z,8.60
2023-04-01T06:00:23.043Z,8.60
2023-04-01T06:02:49.795Z,8.60
2023-04-01T06:05:21.638Z,8.60
2023-04-01T06:07:48.627Z,8.70
2023-04-01T06:10:17.182Z,8.70
2023-04-01T06:13:07.873Z,8.90
2023-04-01T06:15:40.042Z,9.20
2023-04-01T06:18:17.097Z,9.90
2023-04-01T06:20:47.459Z,10.30
2023-04-01T06:23:25.951Z,10.80
2023-04-01T06:26:01.726Z,10.80
2023-04-01T06:28:40.446Z,10.80
2023-04-01T06:31:16.025Z,11.10
2023-04-01T06:34:01.175Z,10.70
2023-04-01T06:36:39.773Z,10.40
2023-04-01T06:39:13.450Z,10.30
2023-04-01T06:41:51.994Z,10.50
2023-04-01T06:44:21.565Z,10.90
2023-04-01T06:46:49.141Z,10.80
2023-04-01T06:49:15.772Z,10.90
2023-04-01T06:51:56.464Z,10.90
2023-04-01T06:54:27.105Z,10.70
2023-04-01T06:56:56.639Z,10.60
2023-04-01T06:59:25.911Z,10.50
2023-04-01T07:02:02.161Z,10.50
2023-04-01T07:04:32.942Z,10.60
2023-04-01T07:07:01.308Z,10.70
2023-04-01T07:09:32.470Z,10.70
2023-04-01T07:12:01.612Z,10.60
2023-04-01T07:14:36.317Z,10.40
2023-04-01T07:17:32.535Z,10.20
2023-04-01T07:20:12.042Z,10.20
2023-04-01T07:22:49.190Z,10.10
2023-04-01T07:25:15.902Z,10.00
2023-04-01T07:27:43.366Z,10.00
2023-04-01T07:30:17.336Z,10.00
2023-04-01T07:33:04.256Z,10.10
2023-04-01T07:35:41.263Z,10.00
2023-04-01T07:38:11.100Z,10.10
2023-04-01T07:40:46.864Z,10.10
2023-04-01T07:43:26.311Z,10.10
2023-04-01T07:46:00.757Z,10.20
2023-04-01T07:48:37.677Z,10.20
2023-04-01T07:51:08.586Z,10.30
2023-04-01T07:53:50.525Z,10.30
2023-04-01T07:56:38.666Z,10.40
2023-04-01T07:59:08.082Z,10.50
2023-04-01T08:01:40.240Z,10.40
2023-04-01T08:04:28.149Z,10.40
2023-04-01T08:07:01.474Z,10.30
2023-04-01T08:09:34.810Z,10.30
2023-04-01T08:12:19.647Z,10.40
2023-04-01T08:15:01.577Z,10.40
2023-04-01T08:17:51.609Z,10.40
2023-04-01T08:20:30.828Z,10.30
2023-04-01T08:23:20.789Z,10.30
2023-04-01T08:25:52.097Z,10.30
2023-04-01T08:28:22.182Z,10.40
2023-04-01T08:30:52.077Z,10.40
2023-04-01T08:33:24.616Z,10.40
2023-04-01T08:35:54.014Z,10.40
2023-04-01T08:38:32.156Z,10.30
2023-04-01T08:40:59.850Z,10.30
2023-04-01T08:43:29.541Z,10.30
2023-04-01T08:46:11.416Z,10.30
2023-04-01T08:48:56.731Z,10.20
2023-04-01T08:51:26.299Z,10.20
2023-04-01T08:54:01.937Z,10.20
2023-04-01T08:56:34.697Z,10.10
2023-04-01T08:59:04.397Z,10.20
2023-04-01T09:01:43.136Z,10.30
2023-04-01T09:04:28.555Z,10.30
2023-04-01T09:07:14.366Z,10.30
2023-04-01T09:10:13.412Z,10.40
2023-04-01T09:13:03.622Z,10.50
2023-04-01T09:15:42.601Z,10.30
2023-04-01T09:18:25.435Z,10.40
2023-04-01T09:21:11.145Z,10.40
2023-04-01T09:23:38.782Z,10.30
2023-04-01T09:26:08.436Z,10.10
2023-04-01T09:28:43.146Z,10.00
2023-04-01T09:31:12.724Z,9.90
2023-04-01T09:33:54.765Z,9.90
2023-04-01T09:36:33.430Z,9.90
2023-04-01T09:39:10.573Z,9.90
2023-04-01T09:41:42.605Z,9.80
2023-04-01T09:44:18.390Z,9.90
2023-04-01T09:46:51.347Z,9.80
2023-04-01T09:49:20.855Z,9.80
2023-04-01T09:51:56.787Z,9.80
2023-04-01T09:54:36.192Z,9.80
2023-04-01T09:57:05.837Z,9.90
2023-04-01T09:59:51.052Z,10.20
2023-04-01T10:02:20.443Z,10.20
2023-04-01T10:05:05.714Z,10.20
2023-04-01T10:07:51.251Z,10.30
2023-04-01T10:10:17.917Z,10.30
2023-04-01T10:12:59.766Z,10.40
2023-04-01T10:15:41.744Z,10.20
2023-04-01T10:18:08.531Z,10.00
2023-04-01T10:20:55.108Z,10.10
2023-04-01T10:23:21.926Z,10.00
2023-04-01T10:25:55.013Z,10.00
2023-04-01T10:28:34.340Z,9.90
2023-04-01T10:31:13.322Z,10.00
2023-04-01T10:34:06.375Z,10.00
2023-04-01T10:36:48.243Z,10.10
2023-04-01T10:39:14.883Z,10.00
2023-04-01T10:42:00.531Z,10.00
2023-04-01T10:44:39.437Z,10.00
2023-04-01T10:47:24.635Z,9.80
2023-04-01T10:50:09.533Z,9.70
2023-04-01T10:52:54.845Z,9.70
2023-04-01T10:55:27.213Z,9.80
2023-04-01T10:58:12.254Z,10.00
2023-04-01T11:01:05.161Z,9.90
2023-04-01T11:03:50.472Z,9.90
2023-04-01T11:06:35.858Z,10.00
2023-04-01T11:09:17.701Z,9.80
2023-04-01T11:11:50.129Z,10.00
2023-04-01T11:14:16.788Z,10.20
2023-04-01T11:16:52.323Z,10.30
2023-04-01T11:19:48.090Z,10.20
2023-04-01T11:22:14.736Z,10.40
2023-04-01T11:24:41.439Z,10.40
2023-04-01T11:27:27.871Z,10.70
2023-04-01T11:30:13.479Z,10.90
2023-04-01T11:32:40.224Z,11.00
2023-04-01T11:35:18.859Z,11.20
2023-04-01T11:37:45.450Z,11.00
2023-04-01T11:40:15.121Z,10.90
2023-04-01T11:42:52.591Z,10.70
2023-04-01T11:45:38.454Z,10.70
2023-04-01T11:48:05.217Z,10.80
2023-04-01T11:50:31.859Z,10.70
2023-04-01T11:53:01.244Z,10.80
2023-04-01T11:55:34.272Z,10.80
2023-04-01T11:58:11.629Z,10.70
2023-04-01T12:00:56.957Z,10.70
2023-04-01T12:03:29.541Z,10.70
2023-04-01T12:06:15.182Z,10.70
2023-04-01T12:08:58.009Z,10.60
2023-04-01T12:11:30.017Z,10.60
2023-04-01T12:13:59.659Z,10.80
2023-04-01T12:16:45.340Z,10.90
2023-04-01T12:19:17.973Z,11.10
2023-04-01T12:21:50.780Z,11.10
2023-04-01T12:24:20.763Z,11.10
2023-04-01T12:26:59.700Z,10.90
2023-04-01T12:29:26.318Z,11.00
2023-04-01T12:31:58.902Z,10.90
2023-04-01T12:34:40.266Z,10.90
2023-04-01T12:37:14.147Z,10.60
2023-04-01T12:39:52.471Z,10.60
2023-04-01T12:42:24.952Z,10.80
2023-04-01T12:44:56.559Z,10.80
2023-04-01T12:47:26.117Z,10.60
2023-04-01T12:49:58.770Z,10.50
2023-04-01T12:52:43.808Z,10.60
2023-04-01T12:55:16.415Z,10.50
2023-04-01T12:58:02.085Z,10.40
2023-04-01T13:00:54.179Z,10.50
2023-04-01T13:03:39.547Z,10.40
2023-04-01T13:06:12.772Z,10.50
2023-04-01T13:08:41.473Z,10.60
2023-04-01T13:11:11.317Z,10.60
2023-04-01T13:13:41.140Z,10.60
2023-04-01T13:16:17.056Z,10.90
2023-04-01T13:18:43.792Z,10.90
2023-04-01T13:21:17.869Z,10.90
2023-04-01T13:23:51.086Z,11.10
2023-04-01T13:26:20.634Z,11.00
2023-04-01T13:29:09.011Z,10.90
2023-04-01T13:31:47.239Z,11.00
2023-04-01T13:34:33.033Z,10.90
2023-04-01T13:37:11.701Z,11.00
2023-04-01T13:39:44.823Z,10.80
2023-04-01T13:42:31.448Z,10.70
2023-04-01T13:45:18.348Z,10.70
2023-04-01T13:48:06.524Z,10.60
2023-04-01T13:51:02.388Z,10.60
2023-04-01T13:53:29.012Z,10.60
2023-04-01T13:56:14.277Z,10.70
2023-04-01T13:58:54.309Z,10.70
2023-04-01T14:01:37.376Z,10.70
2023-04-01T14:04:16.051Z,10.70
2023-04-01T14:07:12.261Z,10.80
2023-04-01T14:09:41.957Z,11.00
2023-04-01T14:12:17.067Z,11.00
2023-04-01T14:15:04.041Z,11.20
2023-04-01T14:17:39.759Z,11.30
2023-04-01T14:20:19.548Z,11.10
2023-04-01T14:23:04.665Z,11.30
2023-04-01T14:25:37.070Z,11.20
2023-04-01T14:28:16.821Z,11.10
2023-04-01T14:31:04.556Z,11.10
2023-04-01T14:33:40.368Z,11.10
2023-04-01T14:36:21.407Z,11.30
2023-04-01T14:39:11.262Z,11.40
2023-04-01T14:42:08.761Z,11.10
2023-04-01T14:45:02.999Z,11.40
2023-04-01T14:47:40.635Z,11.40
2023-04-01T14:50:27.644Z,11.50
2023-04-01T14:53:12.752Z,11.40
2023-04-01T14:55:39.438Z,11.30
2023-04-01T14:58:10.919Z,11.30
2023-04-01T15:00:40.776Z,11.20
2023-04-01T15:03:21.159Z,11.20
2023-04-01T15:05:56.069Z,11.10
2023-04-01T15:08:42.947Z,11.00
2023-04-01T15:11:24.417Z,10.90
2023-04-01T15:14:09.018Z,10.90
2023-04-01T15:16:42.592Z,10.80
2023-04-01T15:19:27.710Z,10.80
2023-04-01T15:22:06.273Z,10.70
2023-04-01T15:24:41.929Z,10.70
2023-04-01T15:27:17.828Z,10.70
2023-04-01T15:29:44.460Z,10.60
2023-04-01T15:32:13.861Z,10.60
2023-04-01T15:34:43.501Z,10.60
2023-04-01T15:37:10.104Z,10.70
2023-04-01T15:39:52.580Z,10.70
2023-04-01T15:42:19.215Z,10.60
2023-04-01T15:44:57.920Z,10.60
2023-04-01T15:47:27.488Z,10.60
2023-04-01T15:50:03.263Z,10.50
2023-04-01T15:52:51.517Z,10.50
2023-04-01T15:55:21.226Z,10.40
2023-04-01T15:57:53.368Z,10.30
2023-04-01T16:00:31.042Z,10.30
2023-04-01T16:03:11.825Z,10.30
2023-04-01T16:05:45.741Z,10.30
2023-04-01T16:08:31.241Z,10.30
2023-04-01T16:10:57.832Z,10.30
2023-04-01T16:13:39.966Z,10.30
2023-04-01T16:16:35.800Z,10.30
2023-04-01T16:19:12.658Z,10.30
2023-04-01T16:21:44.670Z,10.20
2023-04-01T16:24:17.184Z,10.30
2023-04-01T16:26:58.822Z,10.20
2023-04-01T16:29:31.574Z,10.20
2023-04-01T16:32:13.701Z,10.20
2023-04-01T16:34:59.150Z,10.30
2023-04-01T16:37:38.587Z,10.30
2023-04-01T16:40:14.417Z,10.30
2023-04-01T16:42:52.726Z,10.30
2023-04-01T16:45:22.160Z,10.30
2023-04-01T16:47:50.993Z,10.30
2023-04-01T16:50:21.470Z,10.30
2023-04-01T16:53:03.012Z,10.40
2023-04-01T16:56:00.140Z,10.50
2023-04-01T16:58:45.725Z,10.40
2023-04-01T17:01:15.065Z,10.40
2023-04-01T17:03:44.935Z,10.40
2023-04-01T17:06:21.706Z,10.40
2023-04-01T17:08:51.257Z,10.40
2023-04-01T17:11:27.280Z,10.40
2023-04-01T17:14:09.220Z,10.40
2023-04-01T17:16:38.741Z,10.40
2023-04-01T17:19:44.211Z,10.30
2023-04-01T17:22:16.917Z,10.20
2023-04-01T17:25:04.890Z,10.20
2023-04-01T17:27:36.740Z,10.20
2023-04-01T17:30:11.929Z,10.20
2023-04-01T17:32:47.839Z,10.20
2023-04-01T17:35:15.355Z,10.20
2023-04-01T17:37:42.161Z,10.20
2023-04-01T17:40:47.429Z,10.20
2023-04-01T17:43:32.538Z,10.10
2023-04-01T17:46:03.108Z,10.10
2023-04-01T17:48:39.012Z,10.30
2023-04-01T17:51:11.576Z,10.20
2023-04-01T17:53:38.240Z,10.20
2023-04-01T17:56:09.581Z,10.20
2023-04-01T17:58:42.864Z,10.20
2023-04-01T18:01:15.626Z,10.10
2023-04-01T18:03:42.359Z,10.20
2023-04-01T18:06:27.854Z,10.20
2023-04-01T18:08:54.503Z,10.20
2023-04-01T18:11:36.515Z,10.20
2023-04-01T18:14:03.252Z,10.20
2023-04-01T18:16:36.405Z,10.10
2023-04-01T18:19:21.666Z,10.10
2023-04-01T18:21:56.780Z,10.10
2023-04-01T18:24:25.360Z,10.10
2023-04-01T18:27:12.408Z,10.10
2023-04-01T18:29:55.995Z,10.00
2023-04-01T18:32:29.109Z,10.10
2023-04-01T18:35:01.468Z,10.10
2023-04-01T18:37:30.924Z,10.10
2023-04-01T18:40:17.905Z,10.10
2023-04-01T18:42:47.473Z,10.10
2023-04-01T18:45:29.278Z,10.10
2023-04-01T18:47:59.194Z,10.10
2023-04-01T18:50:31.224Z,10.00
2023-04-01T18:53:00.810Z,9.90
2023-04-01T18:55:36.731Z,9.80
2023-04-01T18:58:22.375Z,9.80
2023-04-01T19:00:53.796Z,9.70
2023-04-01T19:03:20.484Z,9.50
2023-04-01T19:05:49.201Z,9.40
2023-04-01T19:08:18.667Z,9.40
2023-04-01T19:10:45.542Z,9.30
2023-04-01T19:13:21.341Z,9.20
2023-04-01T19:15:58.436Z,9.20
2023-04-01T19:18:40.332Z,9.20
2023-04-01T19:21:17.268Z,9.30
2023-04-01T19:23:59.429Z,9.20
2023-04-01T19:26:46.279Z,9.20
2023-04-01T19:29:25.016Z,9.20
2023-04-01T19:32:01.411Z,9.10
2023-04-01T19:34:46.270Z,9.10
2023-04-01T19:37:23.512Z,9.10
2023-04-01T19:39:50.212Z,9.00
2023-04-01T19:42:33.674Z,9.00
2023-04-01T19:45:09.584Z,8.90
2023-04-01T19:47:48.281Z,8.80
2023-04-01T19:50:38.112Z,8.80
2023-04-01T19:53:15.996Z,8.80
2023-04-01T19:55:43.503Z,8.70
2023-04-01T19:58:10.367Z,8.70
2023-04-01T20:00:49.886Z,8.70
2023-04-01T20:03:27.469Z,8.80
2023-04-01T20:05:54.268Z,8.70
2023-04-01T20:08:20.845Z,8.80
2023-04-01T20:10:57.731Z,8.90
2023-04-01T20:13:39.810Z,8.90
2023-04-01T20:16:08.460Z,8.90
2023-04-01T20:18:52.863Z,8.80
2023-04-01T20:21:25.950Z,8.80
2023-04-01T20:23:57.862Z,8.80
2023-04-01T20:26:27.262Z,8.60
2023-04-01T20:29:18.434Z,8.60
2023-04-01T20:31:50.850Z,8.70
2023-04-01T20:34:32.597Z,8.60
2023-04-01T20:37:11.294Z,8.60
2023-04-01T20:39:47.230Z,8.60
2023-04-01T20:42:32.837Z,8.60
2023-04-01T20:45:11.532Z,8.60
2023-04-01T20:47:57.235Z,8.60
2023-04-01T20:50:38.457Z,8.70
2023-04-01T20:53:17.579Z,8.60
2023-04-01T20:56:07.245Z,8.70
2023-04-01T20:58:52.958Z,8.70
2023-04-01T21:01:28.560Z,8.70
2023-04-01T21:04:15.697Z,8.70
2023-04-01T21:06:52.088Z,8.70
2023-04-01T21:09:18.759Z,8.70
2023-04-01T21:11:48.228Z,8.70
2023-04-01T21:14:34.388Z,8.60
2023-04-01T21:17:07.091Z,8.50
2023-04-01T21:19:52.088Z,8.50
2023-04-01T21:22:20.319Z,8.50
2023-04-01T21:25:10.325Z,8.50
2023-04-01T21:27:57.084Z,8.50
2023-04-01T21:30:42.825Z,8.50
2023-04-01T21:33:22.045Z,8.50
2023-04-01T21:36:00.126Z,8.60
2023-04-01T21:38:34.027Z,8.70
2023-04-01T21:41:03.656Z,8.60
2023-04-01T21:43:39.029Z,8.70
2023-04-01T21:46:24.289Z,8.70
2023-04-01T21:49:02.393Z,8.80
2023-04-01T21:51:34.926Z,8.70
2023-04-01T21:54:19.119Z,8.60
2023-04-01T21:56:51.605Z,8.60
2023-04-01T21:59:36.813Z,8.60
2023-04-01T22:02:04.225Z,8.60
2023-04-01T22:04:51.326Z,8.70
2023-04-01T22:07:22.828Z,8.50
2023-04-01T22:09:49.412Z,8.50
2023-04-01T22:12:25.700Z,8.40
2023-04-01T22:14:59.096Z,8.40
2023-04-01T22:17:25.662Z,8.40
2023-04-01T22:20:09.823Z,8.30
2023-04-01T22:22:53.054Z,8.30
2023-04-01T22:25:22.458Z,8.30
2023-04-01T22:28:04.277Z,8.30
2023-04-01T22:30:35.293Z,8.30
2023-04-01T22:33:21.088Z,8.30
2023-04-01T22:35:53.191Z,8.30
2023-04-01T22:38:25.987Z,8.20
2023-04-01T22:41:01.027Z,8.30
2023-04-01T22:43:28.754Z,8.40
2023-04-01T22:46:04.480Z,8.40
2023-04-01T22:48:34.125Z,8.40
2023-04-01T22:51:17.023Z,8.40
2023-04-01T22:53:49.524Z,8.40
2023-04-01T22:56:17.918Z,8.40
2023-04-01T22:58:49.197Z,8.30
2023-04-01T23:01:18.721Z,8.30
2023-04-01T23:03:47.313Z,8.30
2023-04-01T23:06:17.881Z,8.30
2023-04-01T23:08:55.019Z,8.30
2023-04-01T23:11:44.818Z,8.30
2023-04-01T23:14:19.494Z,8.30
2023-04-01T23:16:48.658Z,8.20
2023-04-01T23:19:30.453Z,8.30
2023-04-01T23:21:57.140Z,8.20
2023-04-01T23:24:23.770Z,8.30
2023-04-01T23:26:53.307Z,8.20
2023-04-01T23:29:21.427Z,8.20
2023-04-01T23:31:58.364Z,8.20
2023-04-01T23:34:35.938Z,8.20
2023-04-01T23:37:08.876Z,8.30
2023-04-01T23:39:41.057Z,8.30
2023-04-01T23:42:13.160Z,8.30
2023-04-01T23:44:40.063Z,8.30
2023-04-01T23:47:07.660Z,8.30
2023-04-01T23:49:36.945Z,8.30
2023-04-01T23:52:15.685Z,8.30
2023-04-01T23:54:49.496Z,8.20
2023-04-01T23:57:18.802Z,8.30
2023-04-01T23:59:59.723Z,8.30
